Time;durP1;ratioP1;P1;durP2;ratioP2;P2;SDS_P1;SDS_P2;PMS_P1;PMS_P2;Temp;Humidity;BMP_temperature;BMP_pressure;BME280_temperature;BME280_humidity;BME280_pressure;Samples;Min_cycle;Max_cycle;Signal;HPM_P1;HPM_P2
2023/05/07 00:02:25;;;;;;;2.25;1.20;;;14.80;99.90;;;;;;5052600;28;20040;-86
2023/05/07 00:04:51;;;;;;;1.83;0.95;;;14.80;99.90;;;;;;5027107;28;20025;-87
2023/05/07 00:07:18;;;;;;;1.90;0.90;;;14.80;99.90;;;;;;5053111;28;20062;-87
2023/05/07 00:09:43;;;;;;;4.32;1.63;;;14.80;99.90;;;;;;5053889;28;20033;-87
2023/05/07 00:12:09;;;;;;;2.03;1.27;;;14.80;99.90;;;;;;5061089;28;20037;-86
2023/05/07 00:14:35;;;;;;;2.33;1.05;;;14.80;99.90;;;;;;5026536;28;20036;-87
2023/05/07 00:17:01;;;;;;;2.15;1.08;;;14.80;99.90;;;;;;5062240;28;20033;-87
2023/05/07 00:19:26;;;;;;;1.70;1.00;;;14.80;99.90;;;;;;5044228;28;20040;-87
2023/05/07 00:21:55;;;;;;;2.20;1.27;;;14.80;99.90;;;;;;5056809;28;20083;-87
2023/05/07 00:24:21;;;;;;;2.38;1.30;;;14.80;99.90;;;;;;5026604;28;20030;-87
2023/05/07 00:26:47;;;;;;;3.15;1.50;;;14.80;99.90;;;;;;5027094;28;20037;-87
2023/05/07 00:29:13;;;;;;;2.20;1.00;;;14.80;99.90;;;;;;5052775;28;20399;-87
2023/05/07 00:31:38;;;;;;;2.97;1.42;;;14.80;99.90;;;;;;5043467;28;20098;-88
2023/05/07 00:34:04;;;;;;;2.35;1.50;;;14.80;99.90;;;;;;5046281;28;20041;-88
2023/05/07 00:36:30;;;;;;;3.42;1.77;;;14.70;99.90;;;;;;5045088;28;20033;-87
2023/05/07 00:38:58;;;;;;;2.22;1.48;;;14.70;99.90;;;;;;5045957;28;20025;-87
2023/05/07 00:41:24;;;;;;;2.53;1.52;;;14.70;99.90;;;;;;5047345;28;20031;-88
2023/05/07 00:43:51;;;;;;;2.40;1.98;;;14.70;99.90;;;;;;5061154;28;20120;-87
2023/05/07 00:46:19;;;;;;;2.47;1.70;;;14.70;99.90;;;;;;5043306;28;20032;-87
2023/05/07 00:48:45;;;;;;;2.47;1.85;;;14.70;99.90;;;;;;5030090;28;20045;-87
2023/05/07 00:51:11;;;;;;;2.80;1.30;;;14.60;99.90;;;;;;5026548;28;20021;-88
2023/05/07 00:53:37;;;;;;;2.55;1.50;;;14.60;99.90;;;;;;5058426;28;20505;-88
2023/05/07 00:56:03;;;;;;;2.30;1.98;;;14.60;99.90;;;;;;5061834;28;20041;-88
2023/05/07 00:58:30;;;;;;;2.63;1.45;;;14.50;99.90;;;;;;5060152;28;20176;-87
2023/05/07 01:00:56;;;;;;;3.20;1.83;;;14.50;99.90;;;;;;5028505;28;20442;-87
2023/05/07 01:03:23;;;;;;;3.25;1.85;;;14.50;99.90;;;;;;5027841;28;20072;-87
2023/05/07 01:05:50;;;;;;;2.10;1.70;;;14.50;99.90;;;;;;5028434;28;20068;-88
2023/05/07 01:08:17;;;;;;;3.15;1.92;;;14.50;99.90;;;;;;5028464;28;20120;-87
2023/05/07 01:10:44;;;;;;;3.13;1.80;;;14.40;99.90;;;;;;5035638;28;20547;-88
2023/05/07 01:13:11;;;;;;;3.05;2.50;;;14.40;99.90;;;;;;5026613;28;20021;-88
2023/05/07 01:15:37;;;;;;;5.18;2.50;;;14.30;99.90;;;;;;5055485;28;20509;-88
2023/05/07 01:18:03;;;;;;;3.08;1.70;;;14.30;99.90;;;;;;5062256;28;20025;-88
2023/05/07 01:20:33;;;;;;;;;;;14.30;99.90;;;;;;5027327;28;20045;-87
2023/05/07 01:23:00;;;;;;;2.72;1.70;;;14.30;99.90;;;;;;5060211;28;19913;-87
2023/05/07 01:25:27;;;;;;;2.10;1.70;;;14.30;99.90;;;;;;5031771;28;20108;-87
2023/05/07 01:27:56;;;;;;;;;;;14.20;99.90;;;;;;5047336;28;20160;-86
2023/05/07 01:30:27;;;;;;;2.90;1.65;;;14.30;99.90;;;;;;5053086;28;19909;-87
2023/05/07 01:33:03;;;;;;;2.47;1.73;;;14.30;99.90;;;;;;5065969;28;20110;-86
2023/05/07 01:35:36;;;;;;;3.28;1.80;;;14.30;99.90;;;;;;5047988;28;20115;-87
2023/05/07 01:38:04;;;;;;;2.85;2.33;;;14.30;99.90;;;;;;5051484;28;20114;-86
2023/05/07 01:40:30;;;;;;;3.50;1.92;;;14.30;99.90;;;;;;5064859;28;20029;-86
2023/05/07 01:42:56;;;;;;;2.72;2.08;;;14.30;99.90;;;;;;5046749;28;20017;-87
2023/05/07 01:45:22;;;;;;;3.92;2.75;;;14.30;99.90;;;;;;5056268;28;20133;-87
2023/05/07 01:47:49;;;;;;;3.53;1.98;;;14.30;99.90;;;;;;5061775;28;20029;-87
2023/05/07 01:50:18;;;;;;;4.03;2.70;;;14.30;99.90;;;;;;5048476;28;20017;-87
2023/05/07 01:52:44;;;;;;;3.45;2.67;;;14.30;99.90;;;;;;5027712;28;20108;-87
2023/05/07 01:55:09;;;;;;;3.53;3.22;;;14.30;99.90;;;;;;5043536;28;20155;-86
2023/05/07 01:57:35;;;;;;;3.00;2.75;;;14.30;99.90;;;;;;5062630;28;20025;-86
2023/05/07 02:00:02;;;;;;;3.45;3.15;;;14.30;99.90;;;;;;5032522;28;20052;-87
2023/05/07 02:02:28;;;;;;;3.25;2.72;;;14.30;99.90;;;;;;5062103;28;20033;-87
2023/05/07 02:04:57;;;;;;;3.42;3.13;;;14.20;99.90;;;;;;5061875;28;20033;-87
2023/05/07 02:07:22;;;;;;;4.30;3.33;;;14.20;99.90;;;;;;5063698;28;20087;-87
2023/05/07 02:09:48;;;;;;;3.85;3.55;;;14.20;99.90;;;;;;5045359;28;20120;-87
2023/05/07 02:12:14;;;;;;;4.07;3.42;;;14.20;99.90;;;;;;5037239;28;20029;-87
2023/05/07 02:14:40;;;;;;;3.50;3.20;;;14.20;99.90;;;;;;5045372;28;20156;-87
2023/05/07 02:17:08;;;;;;;4.35;3.28;;;14.20;99.90;;;;;;5046963;28;20078;-87
2023/05/07 02:19:33;;;;;;;4.07;3.70;;;14.20;99.90;;;;;;5031854;28;20025;-86
2023/05/07 02:21:59;;;;;;;4.47;3.55;;;14.20;99.90;;;;;;5062171;28;20040;-87
2023/05/07 02:24:28;;;;;;;4.53;3.67;;;14.20;99.90;;;;;;5039139;28;20029;-87
2023/05/07 02:26:54;;;;;;;4.47;3.58;;;14.20;99.90;;;;;;5027316;28;20051;-88
2023/05/07 02:29:20;;;;;;;3.55;3.25;;;14.20;99.90;;;;;;5037438;28;20037;-87
2023/05/07 02:31:47;;;;;;;4.15;3.75;;;14.20;99.90;;;;;;5038267;28;20504;-88
2023/05/07 02:34:13;;;;;;;4.38;3.60;;;14.20;99.90;;;;;;5029817;28;20037;-87
2023/05/07 02:36:38;;;;;;;4.20;3.80;;;14.10;99.90;;;;;;5061312;28;20409;-87
2023/05/07 02:39:08;;;;;;;4.00;3.42;;;14.10;99.90;;;;;;5044774;28;20025;-87
2023/05/07 02:41:34;;;;;;;3.75;3.35;;;14.10;99.90;;;;;;5028712;28;20477;-86
2023/05/07 02:44:00;;;;;;;4.40;4.00;;;14.10;99.90;;;;;;5053362;28;20040;-86
2023/05/07 02:46:26;;;;;;;5.72;3.35;;;14.10;99.90;;;;;;5057040;28;20033;-86
2023/05/07 02:48:59;;;;;;;3.97;2.88;;;14.00;99.90;;;;;;5051316;28;20025;-86
2023/05/07 02:51:29;;;;;;;3.13;2.80;;;14.00;99.90;;;;;;5045204;28;20032;-87
2023/05/07 02:53:57;;;;;;;3.85;3.42;;;14.00;99.90;;;;;;5039489;28;20124;-86
2023/05/07 02:56:23;;;;;;;3.90;3.53;;;14.00;99.90;;;;;;5047478;28;20124;-86
2023/05/07 02:58:48;;;;;;;3.92;3.60;;;14.00;99.90;;;;;;5031416;28;20041;-87
2023/05/07 03:01:15;;;;;;;4.25;3.70;;;14.00;99.90;;;;;;5046278;28;20029;-87
2023/05/07 03:04:07;;;;;;;4.90;4.05;;;14.00;99.90;;;;;;5053437;28;20045;-87
2023/05/07 03:06:32;;;;;;;4.25;3.65;;;14.00;99.90;;;;;;5045790;28;20025;-86
2023/05/07 03:08:58;;;;;;;3.63;3.30;;;14.00;99.90;;;;;;5030370;28;20068;-87
2023/05/07 03:11:24;;;;;;;3.88;3.38;;;13.90;99.90;;;;;;5030567;28;20018;-87
2023/05/07 03:13:50;;;;;;;4.38;3.42;;;13.90;99.90;;;;;;5053400;28;20021;-87
2023/05/07 03:16:17;;;;;;;3.55;3.25;;;14.00;99.90;;;;;;5042767;28;20025;-87
2023/05/07 03:18:43;;;;;;;6.28;4.00;;;14.00;99.90;;;;;;5063604;28;20079;-88
2023/05/07 03:21:08;;;;;;;5.38;3.80;;;13.90;99.90;;;;;;5045758;28;20572;-86
2023/05/07 03:23:34;;;;;;;4.13;3.72;;;13.90;99.90;;;;;;5041046;28;20389;-87
2023/05/07 03:26:00;;;;;;;4.97;4.43;;;13.90;99.90;;;;;;5044655;28;20033;-87
2023/05/07 03:28:29;;;;;;;4.20;3.80;;;13.90;99.90;;;;;;5031597;28;20017;-87
2023/05/07 03:30:59;;;;;;;4.40;3.83;;;13.90;99.90;;;;;;5038295;28;20024;-87
2023/05/07 03:33:25;;;;;;;4.05;3.28;;;13.90;99.90;;;;;;5026518;28;20539;-87
2023/05/07 03:35:50;;;;;;;3.70;3.28;;;13.90;99.90;;;;;;5029553;28;20025;-87
2023/05/07 03:38:20;;;;;;;4.70;3.08;;;13.90;99.90;;;;;;5039351;28;20287;-87
2023/05/07 03:40:46;;;;;;;4.28;3.85;;;13.90;99.90;;;;;;5029237;28;20584;-87
2023/05/07 03:43:12;;;;;;;5.22;4.70;;;13.90;99.90;;;;;;5030555;28;20020;-88
2023/05/07 03:45:42;;;;;;;4.15;3.78;;;13.90;99.90;;;;;;5028325;28;20029;-87
2023/05/07 03:48:12;;;;;;;4.13;3.72;;;13.90;99.90;;;;;;5039390;28;20436;-88
2023/05/07 03:50:38;;;;;;;3.83;3.47;;;13.80;99.90;;;;;;5052891;28;20028;-88
2023/05/07 03:53:04;;;;;;;4.10;3.38;;;13.80;99.90;;;;;;5056010;28;20037;-88
2023/05/07 03:55:33;;;;;;;3.22;2.92;;;13.80;99.90;;;;;;5045003;28;20025;-87
2023/05/07 03:57:59;;;;;;;3.42;3.13;;;13.80;99.90;;;;;;5054310;28;20473;-88
2023/05/07 04:00:26;;;;;;;4.07;3.78;;;13.80;99.90;;;;;;5036959;28;20047;-87
2023/05/07 04:02:53;;;;;;;4.50;3.90;;;13.80;99.90;;;;;;5043028;28;20127;-87
2023/05/07 04:05:25;;;;;;;3.90;3.58;;;13.80;99.90;;;;;;5037533;28;20040;-87
2023/05/07 04:07:55;;;;;;;3.97;3.58;;;13.70;99.90;;;;;;5038366;28;20083;-86
2023/05/07 04:10:29;;;;;;;3.22;2.92;;;13.80;99.90;;;;;;5058426;28;20021;-87
2023/05/07 04:12:56;;;;;;;3.33;2.97;;;13.70;99.90;;;;;;5055315;28;20041;-87
2023/05/07 04:15:23;;;;;;;3.60;3.22;;;13.80;99.90;;;;;;5035907;28;20037;-87
2023/05/07 04:17:49;;;;;;;3.85;2.92;;;13.70;99.90;;;;;;5025916;28;20025;-87
2023/05/07 04:20:18;;;;;;;3.20;2.72;;;13.80;99.90;;;;;;5041674;28;20067;-87
2023/05/07 04:22:47;;;;;;;2.97;2.67;;;13.80;99.90;;;;;;5059214;28;20029;-87
2023/05/07 04:25:13;;;;;;;4.22;3.03;;;13.80;99.90;;;;;;5061865;28;20033;-87
2023/05/07 04:27:39;;;;;;;3.65;3.28;;;13.80;99.90;;;;;;5053271;28;20021;-87
2023/05/07 04:30:06;;;;;;;3.67;2.78;;;13.80;99.90;;;;;;5053377;28;20047;-87
2023/05/07 04:32:37;;;;;;;3.42;2.33;;;13.80;99.90;;;;;;5044530;28;20055;-87
2023/05/07 04:35:03;;;;;;;2.75;2.45;;;13.80;99.90;;;;;;5059957;28;20025;-87
2023/05/07 04:37:31;;;;;;;2.83;2.35;;;13.80;99.90;;;;;;5036962;28;20037;-87
2023/05/07 04:39:57;;;;;;;3.72;3.15;;;13.90;99.90;;;;;;5027282;28;20051;-87
2023/05/07 04:42:24;;;;;;;2.78;2.25;;;13.80;99.90;;;;;;5025688;28;20109;-87
2023/05/07 04:44:53;;;;;;;2.85;2.53;;;13.80;99.90;;;;;;5059854;28;20120;-88
2023/05/07 04:47:19;;;;;;;2.83;2.63;;;13.90;99.90;;;;;;5043305;28;20100;-88
2023/05/07 04:49:44;;;;;;;3.35;2.90;;;13.90;99.90;;;;;;5043531;28;20025;-88
2023/05/07 04:52:11;;;;;;;3.00;2.70;;;13.90;99.90;;;;;;5059183;28;20395;-87
2023/05/07 04:54:37;;;;;;;3.53;2.42;;;13.90;99.90;;;;;;5050748;28;20102;-87
2023/05/07 04:57:04;;;;;;;2.70;2.35;;;13.90;99.90;;;;;;5041659;28;20176;-87
2023/05/07 04:59:30;;;;;;;4.38;2.47;;;14.00;99.90;;;;;;5041377;28;20042;-88
2023/05/07 05:01:56;;;;;;;3.25;2.05;;;14.00;99.90;;;;;;5031718;28;20033;-88
2023/05/07 05:04:22;;;;;;;2.40;1.83;;;14.00;99.90;;;;;;5043352;28;20044;-88
2023/05/07 05:06:48;;;;;;;2.95;2.10;;;14.00;99.90;;;;;;5045914;28;20021;-87
2023/05/07 05:09:14;;;;;;;2.75;2.20;;;14.00;99.90;;;;;;5045804;28;20025;-87
2023/05/07 05:11:41;;;;;;;2.45;1.80;;;14.00;99.90;;;;;;5033924;28;20075;-88
2023/05/07 05:14:06;;;;;;;2.60;2.20;;;14.00;99.90;;;;;;5029975;28;20029;-87
2023/05/07 05:16:32;;;;;;;1.95;1.70;;;14.00;99.90;;;;;;5046319;28;20018;-88
2023/05/07 05:18:59;;;;;;;3.10;2.45;;;14.00;99.90;;;;;;5038772;28;20037;-88
2023/05/07 05:21:24;;;;;;;3.78;3.38;;;14.00;99.90;;;;;;5048291;28;20872;-88
2023/05/07 05:23:54;;;;;;;3.13;2.45;;;14.00;99.90;;;;;;5056502;28;20055;-87
2023/05/07 05:26:23;;;;;;;4.10;2.63;;;14.00;99.90;;;;;;5030714;28;20029;-87
2023/05/07 05:28:48;;;;;;;2.33;1.85;;;14.10;99.90;;;;;;5037539;28;20021;-87
2023/05/07 05:31:18;;;;;;;3.35;2.90;;;14.10;99.90;;;;;;5029081;28;20028;-87
2023/05/07 05:33:45;;;;;;;3.72;2.78;;;14.10;99.90;;;;;;5049447;28;20358;-87
2023/05/07 05:36:12;;;;;;;3.15;2.58;;;14.20;99.90;;;;;;5035763;28;20025;-87
2023/05/07 05:38:39;;;;;;;3.92;3.53;;;14.20;99.90;;;;;;5044545;28;20099;-87
2023/05/07 05:41:05;;;;;;;4.07;2.47;;;14.10;99.90;;;;;;5041738;28;20107;-87
2023/05/07 05:43:31;;;;;;;3.67;2.53;;;14.20;99.90;;;;;;5024283;28;20477;-87
2023/05/07 05:45:57;;;;;;;2.55;2.35;;;14.20;99.90;;;;;;5053113;28;20044;-88
2023/05/07 05:48:23;;;;;;;4.47;3.03;;;14.20;99.90;;;;;;5022481;28;20609;-87
2023/05/07 05:50:49;;;;;;;2.60;2.20;;;14.20;99.90;;;;;;5054807;28;20033;-87
2023/05/07 05:53:17;;;;;;;2.60;2.40;;;14.30;99.90;;;;;;5056176;28;20389;-87
2023/05/07 05:55:43;;;;;;;3.05;2.53;;;14.30;99.90;;;;;;5041339;28;20147;-87
2023/05/07 05:58:09;;;;;;;2.67;2.08;;;14.30;99.90;;;;;;5058077;28;20041;-87
2023/05/07 06:00:39;;;;;;;2.92;2.08;;;14.30;99.90;;;;;;5040578;28;20497;-87
2023/05/07 06:03:06;;;;;;;3.85;2.38;;;14.40;99.90;;;;;;5034660;28;20030;-88
2023/05/07 06:05:33;;;;;;;2.85;2.55;;;14.40;99.90;;;;;;5032132;28;20473;-88
2023/05/07 06:07:59;;;;;;;3.28;2.78;;;14.40;99.90;;;;;;5021984;28;20032;-87
2023/05/07 06:10:33;;;;;;;2.70;2.33;;;14.40;99.90;;;;;;5034281;28;20102;-88
2023/05/07 06:13:10;;;;;;;2.67;2.35;;;14.40;99.90;;;;;;5055956;28;20017;-88
2023/05/07 06:15:37;;;;;;;3.80;3.50;;;14.50;99.90;;;;;;5058770;28;20040;-87
2023/05/07 06:18:07;;;;;;;3.33;2.63;;;14.50;99.90;;;;;;5042809;28;20032;-89
2023/05/07 06:20:33;;;;;;;5.03;3.40;;;14.50;99.90;;;;;;5025066;28;20036;-88
2023/05/07 06:23:01;;;;;;;6.10;2.03;;;14.50;99.90;;;;;;5031377;28;20025;-88
2023/05/07 06:25:28;;;;;;;3.53;2.58;;;14.60;99.90;;;;;;5044778;28;20025;-88
2023/05/07 06:27:54;;;;;;;3.85;3.40;;;14.60;99.90;;;;;;5037363;28;20041;-89
2023/05/07 06:30:20;;;;;;;3.63;2.75;;;14.60;99.90;;;;;;5032758;28;20029;-88
2023/05/07 06:32:45;;;;;;;3.95;2.25;;;14.60;99.90;;;;;;5023636;28;20060;-88
2023/05/07 06:35:12;;;;;;;3.97;2.78;;;14.70;99.90;;;;;;5034567;28;20043;-89
2023/05/07 06:37:42;;;;;;;4.82;3.92;;;14.60;99.90;;;;;;5036552;28;20547;-88
2023/05/07 06:40:12;;;;;;;3.78;3.00;;;14.60;99.90;;;;;;5041489;28;20028;-90
2023/05/07 06:42:39;;;;;;;3.65;3.35;;;14.70;99.90;;;;;;5040884;28;20064;-88
2023/05/07 06:45:33;;;;;;;3.13;2.40;;;14.70;99.90;;;;;;5027595;28;20021;-89
2023/05/07 06:47:59;;;;;;;3.80;3.45;;;14.80;99.90;;;;;;5040406;28;20059;-88
2023/05/07 06:50:26;;;;;;;4.05;3.38;;;14.80;99.90;;;;;;5024076;28;20021;-89
2023/05/07 06:52:55;;;;;;;3.75;3.33;;;14.90;99.90;;;;;;5044506;28;20024;-87
2023/05/07 06:55:21;;;;;;;4.13;3.53;;;14.90;99.90;;;;;;5027829;28;20033;-88
2023/05/07 06:57:47;;;;;;;3.42;3.13;;;14.90;99.90;;;;;;5035482;28;20025;-88
2023/05/07 07:00:14;;;;;;;4.18;3.78;;;15.00;99.90;;;;;;5055599;28;20032;-89
2023/05/07 07:02:49;;;;;;;4.00;3.60;;;15.10;99.90;;;;;;5052843;28;20511;-88
2023/05/07 07:05:18;;;;;;;4.88;3.92;;;15.10;99.90;;;;;;5034921;28;20032;-88
2023/05/07 07:07:44;;;;;;;4.95;4.45;;;15.20;99.90;;;;;;5039929;28;20104;-89
2023/05/07 07:10:10;;;;;;;3.10;2.80;;;15.20;99.90;;;;;;5051802;28;20777;-88
2023/05/07 07:12:35;;;;;;;5.20;4.03;;;15.30;99.90;;;;;;5038690;28;20035;-88
2023/05/07 07:15:02;;;;;;;4.35;3.60;;;15.30;99.90;;;;;;5030194;28;20029;-87
2023/05/07 07:17:28;;;;;;;4.68;3.70;;;15.40;99.90;;;;;;5054747;28;20368;-88
2023/05/07 07:19:57;;;;;;;4.13;3.33;;;15.50;99.90;;;;;;5036548;28;20075;-88
2023/05/07 07:22:22;;;;;;;5.40;4.13;;;15.60;99.90;;;;;;5018991;28;20476;-88
2023/05/07 07:24:48;;;;;;;4.72;3.78;;;15.70;99.90;;;;;;5032121;28;20022;-88
2023/05/07 07:27:16;;;;;;;4.78;3.85;;;15.80;99.90;;;;;;5038172;28;20549;-88
2023/05/07 07:29:42;;;;;;;3.72;3.05;;;15.80;99.90;;;;;;5040617;28;20025;-88
2023/05/07 07:32:08;;;;;;;4.50;4.10;;;16.00;99.90;;;;;;5033481;28;20021;-88
2023/05/07 07:34:34;;;;;;;6.03;4.68;;;15.90;99.90;;;;;;5020747;28;20112;-87
2023/05/07 07:37:05;;;;;;;5.13;3.53;;;15.90;99.90;;;;;;5037427;28;20036;-88
2023/05/07 07:39:32;;;;;;;5.15;3.92;;;16.00;99.90;;;;;;5039577;28;20056;-88
2023/05/07 07:41:57;;;;;;;5.30;3.95;;;16.00;99.90;;;;;;5039002;28;20045;-88
2023/05/07 07:44:24;;;;;;;5.43;4.40;;;16.10;99.90;;;;;;5041251;28;20025;-89
2023/05/07 07:46:55;;;;;;;5.75;3.78;;;16.10;99.90;;;;;;5022627;28;20029;-87
2023/05/07 07:49:23;;;;;;;5.47;4.97;;;16.00;99.90;;;;;;5021787;28;20030;-88
2023/05/07 07:51:48;;;;;;;5.65;5.13;;;16.20;99.90;;;;;;5029670;28;20040;-88
2023/05/07 07:54:15;;;;;;;4.60;3.65;;;16.10;99.90;;;;;;5031874;28;20539;-87
2023/05/07 07:56:41;;;;;;;7.07;3.78;;;16.20;99.90;;;;;;5031539;28;20044;-87
2023/05/07 07:59:08;;;;;;;5.65;4.90;;;16.20;99.90;;;;;;5020857;28;20078;-88
2023/05/07 08:01:37;;;;;;;4.82;3.90;;;16.30;99.90;;;;;;5030772;28;20041;-88
2023/05/07 08:04:03;;;;;;;5.40;4.13;;;16.40;99.90;;;;;;5037591;28;20036;-89
2023/05/07 08:06:29;;;;;;;4.60;4.18;;;16.50;99.90;;;;;;5035898;28;20037;-88
2023/05/07 08:08:55;;;;;;;4.00;3.47;;;16.50;99.90;;;;;;5036393;28;20055;-88
2023/05/07 08:11:22;;;;;;;5.05;3.65;;;16.80;99.90;;;;;;5052350;28;20032;-89
2023/05/07 08:13:48;;;;;;;4.90;3.03;;;16.90;99.90;;;;;;5050121;28;20887;-88
2023/05/07 08:16:14;;;;;;;4.65;4.07;;;17.10;99.90;;;;;;5029944;28;20520;-87
2023/05/07 08:18:40;;;;;;;3.95;3.53;;;17.20;99.90;;;;;;5043309;28;20029;-88
2023/05/07 08:21:05;;;;;;;4.50;4.03;;;17.40;99.90;;;;;;5031753;28;20037;-88
2023/05/07 08:23:31;;;;;;;6.88;4.70;;;17.60;99.90;;;;;;5031045;28;20470;-88
2023/05/07 08:25:57;;;;;;;6.40;5.32;;;17.60;99.90;;;;;;5039781;28;20047;-88
2023/05/07 08:28:24;;;;;;;6.45;4.38;;;17.60;99.90;;;;;;5035084;28;20025;-88
2023/05/07 08:30:50;;;;;;;4.63;3.67;;;17.80;99.90;;;;;;5036040;28;20041;-88
2023/05/07 08:33:16;;;;;;;5.70;4.75;;;17.90;99.90;;;;;;5043786;28;20135;-89
2023/05/07 08:35:42;;;;;;;4.95;4.55;;;17.90;99.90;;;;;;5035554;28;20519;-89
2023/05/07 08:38:09;;;;;;;5.00;4.15;;;17.90;99.90;;;;;;5040907;28;20078;-89
2023/05/07 08:40:39;;;;;;;6.85;4.10;;;18.10;99.90;;;;;;5045352;28;20057;-89
2023/05/07 08:43:12;;;;;;;4.88;3.80;;;18.40;99.90;;;;;;5061126;28;20606;-88
2023/05/07 08:45:40;;;;;;;5.25;3.72;;;18.70;99.90;;;;;;5056026;28;20055;-89
2023/05/07 08:48:15;;;;;;;4.25;3.05;;;19.00;99.90;;;;;;5058958;28;20344;-88
2023/05/07 08:50:43;;;;;;;5.28;3.42;;;18.90;99.90;;;;;;5038594;28;20084;-87
2023/05/07 08:53:10;;;;;;;3.50;3.20;;;18.80;99.90;;;;;;5044381;28;20025;-89
2023/05/07 08:55:36;;;;;;;4.78;3.58;;;18.80;99.90;;;;;;5044937;28;20071;-88
2023/05/07 08:58:02;;;;;;;3.95;3.42;;;18.80;99.90;;;;;;5040597;28;20408;-88
2023/05/07 09:00:30;;;;;;;4.25;3.33;;;19.10;99.90;;;;;;5036143;28;20473;-88
2023/05/07 09:02:57;;;;;;;5.90;4.53;;;19.40;99.90;;;;;;5038552;28;20508;-88
2023/05/07 09:05:23;;;;;;;4.07;3.20;;;19.50;99.90;;;;;;5034646;28;20108;-87
2023/05/07 09:07:50;;;;;;;3.63;2.70;;;19.70;99.90;;;;;;5040438;28;20045;-88
2023/05/07 09:10:16;;;;;;;3.83;3.00;;;19.80;99.90;;;;;;5034311;28;20503;-88
2023/05/07 09:12:43;;;;;;;3.47;2.47;;;20.00;99.90;;;;;;5057131;28;20087;-88
2023/05/07 09:15:12;;;;;;;4.05;2.40;;;19.80;99.90;;;;;;5038826;28;20021;-87
2023/05/07 09:17:38;;;;;;;2.88;1.70;;;19.80;99.90;;;;;;5043259;28;20052;-88
2023/05/07 09:20:05;;;;;;;2.95;1.92;;;19.70;99.90;;;;;;5033959;28;20487;-88
2023/05/07 09:22:32;;;;;;;3.00;2.03;;;19.90;99.90;;;;;;5041142;28;20359;-89
2023/05/07 09:25:03;;;;;;;3.10;1.85;;;20.20;99.90;;;;;;5033513;28;20021;-88
2023/05/07 09:27:31;;;;;;;2.47;1.88;;;20.50;99.90;;;;;;5056025;28;20029;-88
2023/05/07 09:29:57;;;;;;;3.08;2.45;;;20.50;99.90;;;;;;5036675;28;20036;-89
2023/05/07 09:32:25;;;;;;;2.60;1.67;;;20.60;99.90;;;;;;5053260;28;20033;-89
2023/05/07 09:34:51;;;;;;;2.40;2.13;;;21.00;99.90;;;;;;5027238;28;20097;-88
2023/05/07 09:37:21;;;;;;;2.85;2.08;;;21.10;99.90;;;;;;5042369;28;20124;-89
2023/05/07 09:39:48;;;;;;;2.40;1.45;;;21.50;99.90;;;;;;5033774;28;20223;-89
2023/05/07 09:42:24;;;;;;;3.05;2.10;;;21.70;99.90;;;;;;5036110;28;20041;-89
2023/05/07 09:44:51;;;;;;;3.38;1.95;;;21.50;99.90;;;;;;5045062;28;20053;-89
2023/05/07 09:47:24;;;;;;;2.70;1.50;;;21.80;99.90;;;;;;5054675;28;20036;-88
2023/05/07 09:49:57;;;;;;;2.40;1.52;;;21.70;99.90;;;;;;5023209;28;20033;-89
2023/05/07 09:52:23;;;;;;;3.30;1.58;;;21.60;99.90;;;;;;5042642;28;20029;-89
2023/05/07 09:54:53;;;;;;;2.40;1.73;;;21.60;99.90;;;;;;5039486;28;20025;-88
2023/05/07 09:57:23;;;;;;;1.77;1.10;;;21.70;99.90;;;;;;5022922;28;20067;-90
2023/05/07 09:59:56;;;;;;;3.97;1.80;;;22.00;99.90;;;;;;5040264;28;20300;-89
2023/05/07 10:02:25;;;;;;;2.30;1.67;;;22.40;99.90;;;;;;5055306;28;20030;-90
2023/05/07 10:04:54;;;;;;;3.63;1.38;;;22.60;99.90;;;;;;5039536;28;20167;-90
2023/05/07 10:07:25;;;;;;;2.20;1.23;;;22.90;99.90;;;;;;5056307;28;20026;-90
2023/05/07 10:09:55;;;;;;;2.55;0.80;;;22.90;99.90;;;;;;5055840;28;20389;-89
2023/05/07 10:12:37;;;;;;;1.80;0.93;;;23.00;99.90;;;;;;5036583;28;20033;-89
2023/05/07 10:15:10;;;;;;;2.25;1.05;;;23.00;99.90;;;;;;5039209;28;20037;-91
2023/05/07 10:17:39;;;;;;;1.80;0.70;;;23.40;99.90;;;;;;5058306;28;20076;-89
2023/05/07 10:20:06;;;;;;;1.85;0.98;;;23.20;99.90;;;;;;5036313;28;20017;-91
2023/05/07 10:22:39;;;;;;;1.90;0.85;;;22.70;99.90;;;;;;5052958;28;20067;-89
2023/05/07 10:25:17;;;;;;;1.50;0.70;;;22.60;99.90;;;;;;5040888;28;20121;-90
2023/05/07 10:27:45;;;;;;;2.10;0.80;;;22.40;99.90;;;;;;5022028;28;20025;-89
2023/05/07 10:30:37;;;;;;;1.85;0.73;;;22.30;99.90;;;;;;5039133;28;20032;-89
2023/05/07 10:33:07;;;;;;;2.88;0.70;;;22.40;99.90;;;;;;5023983;28;20025;-90
2023/05/07 10:35:42;;;;;;;1.98;0.80;;;22.80;99.90;;;;;;5041944;28;20104;-90
2023/05/07 10:38:09;;;;;;;1.58;0.70;;;23.10;99.90;;;;;;5056104;28;20032;-89
2023/05/07 10:40:37;;;;;;;2.20;0.82;;;23.40;99.90;;;;;;5043551;28;20139;-89
2023/05/07 10:43:06;;;;;;;1.70;0.85;;;23.20;99.90;;;;;;5024282;28;20094;-90
2023/05/07 10:45:38;;;;;;;1.60;0.90;;;23.10;99.90;;;;;;5028787;28;20043;-88
2023/05/07 10:48:15;;;;;;;1.35;0.80;;;23.00;99.90;;;;;;5050271;28;20390;-90
2023/05/07 10:50:48;;;;;;;1.48;0.68;;;23.20;99.90;;;;;;5039219;28;20026;-89
2023/05/07 10:53:17;;;;;;;2.40;1.27;;;23.30;99.90;;;;;;5040945;28;20025;-90
2023/05/07 10:55:51;;;;;;;1.70;0.63;;;23.20;99.90;;;;;;5036432;28;20037;-90
2023/05/07 10:58:21;;;;;;;1.33;0.70;;;23.10;99.90;;;;;;5053894;28;20092;-89
2023/05/07 11:00:49;;;;;;;1.52;0.80;;;23.10;99.90;;;;;;5039588;28;20136;-90
2023/05/07 11:03:26;;;;;;;1.73;0.73;;;23.00;99.90;;;;;;5022351;28;20061;-90
2023/05/07 11:06:15;;;;;;;1.60;0.80;;;23.20;99.90;;;;;;5031124;28;20501;-88
2023/05/07 11:08:58;;;;;;;1.67;0.80;;;23.10;99.90;;;;;;5039175;28;20021;-90
2023/05/07 11:11:45;;;;;;;1.40;0.60;;;23.40;99.90;;;;;;5041181;28;20025;-89
2023/05/07 11:14:42;;;;;;;1.73;0.60;;;23.60;99.90;;;;;;5040382;28;20032;-91
2023/05/07 11:17:10;;;;;;;1.70;0.80;;;23.30;99.90;;;;;;5054558;28;20112;-89
2023/05/07 11:19:55;;;;;;;1.42;0.68;;;23.20;99.90;;;;;;5054781;28;20110;-90
2023/05/07 11:22:44;;;;;;;1.50;0.60;;;23.00;99.90;;;;;;5047508;28;20410;-89
2023/05/07 11:25:19;;;;;;;1.55;0.65;;;22.90;99.90;;;;;;5054137;28;20029;-89
2023/05/07 11:27:46;;;;;;;1.95;0.80;;;23.40;99.90;;;;;;5043322;28;20111;-90
2023/05/07 11:30:22;;;;;;;1.90;0.80;;;23.60;99.90;;;;;;5039836;28;20029;-89
2023/05/07 11:32:48;;;;;;;2.85;0.70;;;23.40;99.90;;;;;;5023515;28;20031;-90
2023/05/07 11:35:17;;;;;;;1.42;0.60;;;23.50;99.90;;;;;;5031366;28;20021;-90
2023/05/07 11:37:46;;;;;;;1.83;0.70;;;23.20;99.90;;;;;;5055490;28;20021;-89
2023/05/07 11:40:13;;;;;;;1.52;0.60;;;23.10;99.90;;;;;;5022865;28;20037;-88
2023/05/07 11:42:42;;;;;;;3.03;0.88;;;22.80;99.90;;;;;;5028236;28;20057;-90
2023/05/07 11:45:09;;;;;;;2.05;1.25;;;23.00;99.90;;;;;;5030757;28;20067;-89
2023/05/07 11:47:35;;;;;;;2.10;1.30;;;22.80;99.90;;;;;;5033585;28;20072;-89
2023/05/07 11:50:06;;;;;;;1.40;0.80;;;22.80;99.90;;;;;;5051224;28;20025;-89
2023/05/07 11:52:32;;;;;;;1.95;1.25;;;22.80;99.90;;;;;;5055145;28;20035;-89
2023/05/07 11:54:59;;;;;;;1.50;0.80;;;23.20;99.90;;;;;;5031869;28;20044;-90
2023/05/07 11:57:26;;;;;;;1.70;0.80;;;23.60;99.90;;;;;;5038159;28;20029;-89
2023/05/07 11:59:56;;;;;;;1.95;0.80;;;23.50;99.90;;;;;;5029976;28;20789;-90
2023/05/07 12:02:22;;;;;;;1.65;0.68;;;23.70;99.90;;;;;;5051554;28;20079;-90
2023/05/07 12:04:47;;;;;;;1.63;0.88;;;23.70;99.90;;;;;;5022583;28;20064;-90
2023/05/07 12:07:18;;;;;;;1.75;0.70;;;23.50;99.90;;;;;;5039320;28;20021;-90
2023/05/07 12:09:44;;;;;;;1.67;0.80;;;23.50;99.90;;;;;;5042094;28;20074;-92
2023/05/07 12:12:10;;;;;;;1.58;0.80;;;23.60;99.90;;;;;;5039355;28;20040;-89
2023/05/07 12:14:40;;;;;;;1.40;0.80;;;23.80;99.90;;;;;;5037728;28;20045;-89
2023/05/07 12:17:07;;;;;;;1.60;0.70;;;23.50;99.90;;;;;;5043273;28;20469;-89
2023/05/07 12:19:34;;;;;;;1.60;0.73;;;23.80;99.90;;;;;;5032918;28;20022;-89
2023/05/07 12:22:02;;;;;;;1.92;0.90;;;23.60;99.90;;;;;;5056235;28;20045;-89
2023/05/07 12:24:28;;;;;;;1.80;0.80;;;23.60;99.90;;;;;;5039881;28;20107;-89
2023/05/07 12:26:54;;;;;;;1.98;0.70;;;23.30;99.90;;;;;;5032190;28;20112;-89
2023/05/07 12:29:23;;;;;;;1.80;0.80;;;23.20;99.90;;;;;;5039458;28;20029;-90
2023/05/07 12:31:50;;;;;;;1.70;0.70;;;23.20;99.90;;;;;;5038337;28;20028;-89
2023/05/07 12:34:16;;;;;;;1.10;0.60;;;23.10;99.90;;;;;;5040978;28;20060;-90
2023/05/07 12:36:42;;;;;;;1.52;0.63;;;23.10;99.90;;;;;;5034043;28;20067;-89
2023/05/07 12:39:08;;;;;;;1.45;0.63;;;23.10;99.90;;;;;;5042998;28;20114;-88
2023/05/07 12:41:58;;;;;;;1.45;0.75;;;22.90;99.90;;;;;;5025226;28;20037;-90
2023/05/07 12:44:32;;;;;;;1.73;0.70;;;22.60;99.90;;;;;;5054008;28;20029;-89
2023/05/07 12:47:00;;;;;;;1.58;0.63;;;22.50;99.90;;;;;;5029859;28;20456;-89
2023/05/07 12:49:26;;;;;;;1.52;0.68;;;22.30;99.90;;;;;;5045371;28;20025;-88
2023/05/07 12:51:54;;;;;;;2.00;1.00;;;22.10;99.90;;;;;;5027426;28;20035;-90
2023/05/07 12:54:38;;;;;;;1.80;0.60;;;22.00;99.90;;;;;;5045065;28;20053;-88